METAR Data
IDs: Format: Raw Decoded Include TAF

Data at: 2307 UTC 10 May 2021

KFLY 102255Z AUTO 11012G15KT 10SM OVC004 02/01 A3006 RMK AO2 T00180014
KFLY 102235Z AUTO 11011G16KT 7SM -SN OVC004 02/01 A3007 RMK AO2 T00180014
KFLY 102215Z AUTO 11012G16KT 1 3/4SM -SN OVC002 01/01 A3007 RMK AO2 T00110007
KFLY 102155Z AUTO 11014KT 2SM -RA OVC002 02/01 A3006 RMK AO2 T00160011
KFLY 102135Z AUTO 12010G16KT 2SM RA OVC002 02/02 A3007 RMK AO2 T00200015
KFLY 102115Z AUTO 10011KT 1 1/2SM BR OVC002 02/02 A3007 RMK AO2 T00210017
KFLY 102055Z AUTO 11006KT 2SM DZ OVC002 02/02 A3008 RMK AO2 T00200015
KFLY 102035Z AUTO 13013G17KT 2 1/2SM BR OVC002 02/02 A3006 RMK AO2 T00200016
KFLY 102015Z AUTO 11012G15KT 2 1/2SM BR OVC002 02/02 A3006 RMK AO2 T00190015
KFLY 101955Z AUTO 17013G17KT 1SM BR OVC002 02/02 A3005 RMK AO2 T00220018
KFLY 101935Z AUTO 14014G22KT 2 1/2SM BR OVC002 02/02 A3005 RMK AO2 VIS 1 1/2V4 T00200016
KFLY 101915Z AUTO 13016G19KT 1 1/4SM BR OVC002 02/01 A3006 RMK AO2 VIS 1/2V5 T00190014
KFLY 101855Z AUTO 15016G21KT 3/4SM BR OVC002 02/01 A3006 RMK AO2 T00180013
KFLY 101835Z AUTO 14015G20KT 2SM BR OVC002 02/02 A3007 RMK AO2 T00190015
KFLY 101815Z AUTO 15013KT 2SM BR OVC002 02/02 A3007 RMK AO2 T00190015
KFLY 101755Z AUTO 15012G18KT 2 1/2SM BR OVC002 02/02 A3007 RMK AO2 VIS 1 1/2V4 T00200017 10020 20003
KFLY 101735Z AUTO 16014G18KT 2SM BR OVC002 02/01 A3007 RMK AO2 T00170014
KFLY 101715Z AUTO 17015G21KT 1 1/2SM -RA OVC002 01/01 A3008 RMK AO2 T00140011
KFLY 101655Z AUTO 16011G19KT 1 1/2SM -RA OVC002 01/01 A3008 RMK AO2 T00130010
KFLY 101635Z AUTO 16015G18KT 2SM BR OVC002 01/01 A3008 RMK AO2 T00120010
KFLY 101615Z AUTO 15014G21KT 2SM BR OVC002 01/01 A3008 RMK AO2 VIS 1 1/4V2 1/2 T00100007
KFLY 101555Z AUTO 15016G21KT 1 1/2SM BR OVC002 01/01 A3008 RMK AO2 T00090006
KFLY 101535Z AUTO 16016G21KT 2SM -RA OVC002 01/00 A3010 RMK AO2 T00070004
KFLY 101515Z AUTO 16015G22KT 1SM -RA OVC002 01/01 A3010 RMK AO2 VIS 1/2V2 1/2 T00070005
KFLY 101455Z AUTO 16016G19KT 1 1/2SM BR OVC002 01/01 A3010 RMK AO2 T00080005
KFLY 101435Z AUTO 15016G20KT 1/4SM -RA OVC002 01/01 A3010 RMK AO2 T00070005
KFLY 101415Z AUTO 15015KT M1/4SM -RA OVC002 01/01 A3010 RMK AO2 T00070005
KFLY 101355Z AUTO 16013G21KT 1/4SM -RA OVC002 01/01 A3010 RMK AO2 T00100006
KFLY 101335Z AUTO 17012KT M1/4SM RA OVC002 01/01 A3010 RMK AO2 T00080005
KFLY 101315Z AUTO 17014G18KT 1/4SM -RA OVC002 01/01 A3010 RMK AO2 T00080005
KFLY 101255Z AUTO 17012KT M1/4SM -SN OVC002 01/00 A3010 RMK AO2 T00070004
KFLY 101235Z AUTO 17013KT M1/4SM SN OVC002 01/00 A3010 RMK AO2 T00060003
KFLY 101215Z AUTO 17010G15KT 1/4SM -SN OVC002 01/00 A3010 RMK AO2 T00050001
KFLY 101155Z AUTO 18009G14KT 1/4SM -SN OVC002 00/00 A3010 RMK AO2 T00030000 10021 20000
KFLY 101135Z AUTO 20009KT 1/4SM FG OVC002 00/00 A3010 RMK AO2 T00010000
KFLY 101115Z AUTO 20007KT 1/4SM FG OVC002 00/00 A3010 RMK AO2 T00010000
KFLY 101055Z AUTO 19007KT 1/4SM FG OVC002 00/00 A3010 RMK AO2 T00010000
KFLY 101035Z AUTO 18008KT 1/2SM -SN OVC002 00/00 A3011 RMK AO2 T00010000
KFLY 101015Z AUTO 20006KT 1 1/4SM -SN OVC002 00/00 A3012 RMK AO2 T00010000
KFLY 100955Z AUTO 21005KT 3/4SM -SN OVC002 00/00 A3012 RMK AO2 T00020000
KFLY 100935Z AUTO 20006KT 3/4SM -SN OVC002 00/00 A3013 RMK AO2 T00010000
KFLY 100915Z AUTO 19009KT 1SM -SN OVC002 00/00 A3012 RMK AO2 T00010000
KFLY 100855Z AUTO 18011KT 1SM -SN OVC002 00/00 A3013 RMK AO2 T00010000
KFLY 100835Z AUTO 19011KT 1 1/2SM -SN OVC002 00/00 A3013 RMK AO2 T00010000
KFLY 100815Z AUTO 19010KT 1 1/4SM -SN OVC002 00/00 A3014 RMK AO2 T00010000
KFLY 100755Z AUTO 18011G15KT 3/4SM -SN OVC002 00/00 A3014 RMK AO2 T00020000
KFLY 100735Z AUTO 18012KT 1 1/2SM -SN OVC002 00/00 A3014 RMK AO2 T00020000
KFLY 100715Z AUTO 18010KT 1SM -SN OVC002 00/00 A3014 RMK AO2 LTG DSNT SE T00020000
KFLY 100655Z AUTO 17009G15KT 3SM -SN BKN004 OVC008 01/00 A3015 RMK AO2 LTG DSNT SE T00050000 400580005
KFLY 100635Z AUTO 18013G16KT 7SM -SN SCT008 OVC015 01/00 A3015 RMK AO2 T00100000
KFLY 100615Z AUTO 16008KT 7SM -SN OVC017 02/00 A3014 RMK AO2 T00151002
KFLY 100555Z AUTO 17007KT 10SM -RA OVC013 02/00 A3015 RMK AO2 T00210000 10045 20020
KFLY 100535Z AUTO 15008G16KT 7SM OVC013 02/00 A3014 RMK AO2 T00210002
KFLY 100515Z AUTO 17010G16KT 10SM OVC017 03/M01 A3015 RMK AO2 LTG DSNT SE T00301012
KFLY 100455Z AUTO 15008KT 10SM OVC021 03/M01 A3015 RMK AO2 T00301015
KFLY 100435Z AUTO 15006KT 10SM OVC021 03/M02 A3014 RMK AO2 T00301017
KFLY 100415Z AUTO 15007KT 10SM OVC021 03/M02 A3013 RMK AO2 T00301020
KFLY 100355Z AUTO 15005KT 10SM OVC021 03/M02 A3013 RMK AO2 T00311024
KFLY 100335Z AUTO 15006KT 10SM OVC021 03/M03 A3013 RMK AO2 T00301028
KFLY 100315Z AUTO 15007KT 10SM OVC023 03/M03 A3013 RMK AO2 T00311029
KFLY 100255Z AUTO 16004KT 10SM OVC023 03/M03 A3013 RMK AO2 T00311030
KFLY 100235Z AUTO 16006KT 10SM OVC023 03/M03 A3012 RMK AO2 T00311032
KFLY 100215Z AUTO 16006KT 10SM OVC025 03/M04 A3012 RMK AO2 T00321036
KFLY 100155Z AUTO 15007KT 10SM OVC027 03/M04 A3011 RMK AO2 T00341039
KFLY 100135Z AUTO 14008KT 10SM OVC027 04/M04 A3011 RMK AO2 T00351042
KFLY 100115Z AUTO 14008KT 10SM OVC027 04/M04 A3010 RMK AO2 T00361043
KFLY 100055Z AUTO 15009KT 10SM BKN023 OVC029 05/M04 A3010 RMK AO2 T00451042
KFLY 100035Z AUTO 15008KT 10SM OVC023 04/M02 A3010 RMK AO2 T00411018
KFLY 100015Z AUTO 15010G15KT 10SM SCT023 OVC028 04/M02 A3010 RMK AO2 T00421020
KFLY 092355Z AUTO 15011KT 10SM SCT023 OVC030 04/M02 A3010 RMK AO2 T00431021 10058 20043
KFLY 092335Z AUTO 15011G19KT 10SM BKN023 OVC031 05/M02 A3010 RMK AO2 T00451019
KFLY 092315Z AUTO 15015G19KT 10SM OVC023 05/M02 A3008 RMK AO2 T00461016
KFLY 092255Z AUTO 14009KT 10SM OVC027 05/M02 A3010 RMK AO2 T00461019
KFLY 092235Z AUTO 15008G15KT 10SM OVC029 05/M03 A3009 RMK AO2 T00501030
KFLY 092215Z AUTO 15011G16KT 10SM OVC029 05/M03 A3008 RMK AO2 T00511035
KFLY 092155Z AUTO 15012KT 10SM OVC029 06/M03 A3009 RMK AO2 T00551030
KFLY 092135Z AUTO 15011G19KT 10SM OVC027 05/M02 A3009 RMK AO2 T00521025
KFLY 092115Z AUTO 15011G17KT 130V190 10SM OVC029 06/M02 A3009 RMK AO2 T00551024
KFLY 092055Z AUTO 15009G14KT 10SM OVC027 05/M03 A3009 RMK AO2 T00521026
KFLY 092035Z AUTO 16010G15KT 10SM OVC027 05/M03 A3009 RMK AO2 T00511027
KFLY 092015Z AUTO 15010G14KT 10SM OVC027 06/M03 A3009 RMK AO2 T00551028
KFLY 091955Z AUTO 15010G14KT 10SM OVC027 06/M03 A3010 RMK AO2 T00571029
KFLY 091935Z AUTO 15009G15KT 10SM OVC027 05/M02 A3010 RMK AO2 T00541024
KFLY 091915Z AUTO 16008G15KT 10SM BKN025 OVC030 05/M02 A3010 RMK AO2 T00481018
KFLY 091855Z AUTO 15010KT 10SM OVC028 06/M04 A3011 RMK AO2 T00581036
KFLY 091835Z AUTO 14011G17KT 10SM OVC028 05/M03 A3011 RMK AO2 T00521030
KFLY 091815Z AUTO 15007G17KT 10SM OVC026 05/M03 A3012 RMK AO2 T00501035
KFLY 091755Z AUTO 14007KT 10SM OVC026 06/M03 A3013 RMK AO2 T00561029 10058 20013
KFLY 091735Z AUTO 14007KT 10SM OVC028 06/M03 A3013 RMK AO2 T00551034
KFLY 091715Z AUTO 13008G16KT 10SM BKN028 OVC036 05/M03 A3013 RMK AO2 T00531033
KFLY 091655Z AUTO 12007KT 10SM OVC036 05/M04 A3014 RMK AO2 T00531040
KFLY 091635Z AUTO 15004KT 10SM OVC036 05/M04 A3014 RMK AO2 T00481038
KFLY 091615Z AUTO 07004KT 10SM OVC036 04/M04 A3014 RMK AO2 T00411040
KFLY 091555Z AUTO 06005KT 10SM OVC036 04/M04 A3014 RMK AO2 T00391041
KFLY 091535Z AUTO 05006KT 10SM OVC036 04/M04 A3014 RMK AO2 T00351042
KFLY 091515Z AUTO 02011G16KT 10SM OVC036 04/M03 A3013 RMK AO2 T00381035
KFLY 091455Z AUTO 02015KT 10SM OVC036 04/M03 A3012 RMK AO2 T00361031
KFLY 091435Z AUTO 36011G18KT 10SM OVC032 03/M02 A3013 RMK AO2 T00281023
KFLY 091415Z AUTO 02012G18KT 10SM OVC032 03/M01 A3013 RMK AO2 T00251013
KFLY 091355Z AUTO 02013G21KT 330V030 10SM OVC032 02/M01 A3012 RMK AO2 T00241009
KFLY 091335Z AUTO 36009G21KT 310V020 10SM SCT006 SCT013 OVC032 02/00 A3011 RMK AO2 T00201001
KFLY 091315Z AUTO 02013G17KT 10SM BKN006 BKN013 OVC019 01/00 A3011 RMK AO2 T00130004
KFLY 091255Z AUTO 03011KT 10SM OVC006 01/01 A3011 RMK AO2 T00140005
KFLY 091235Z AUTO 03013G18KT 10SM BKN006 OVC010 01/00 A3010 RMK AO2 T00140004
KFLY 091215Z AUTO 03014G22KT 10SM OVC008 02/01 A3008 RMK AO2 T00150005
KFLY 091155Z AUTO 02012KT 10SM BKN005 OVC010 02/01 A3008 RMK AO2 T00150005 10050 20015
KFLY 091135Z AUTO 03013G21KT 10SM OVC003 02/01 A3008 RMK AO2 T00150007
KFLY 091115Z AUTO 02013KT 10SM OVC006 02/01 A3007 RMK AO2 T00170007